createdAt,value
2023-05-11T00:00:03.851Z,14.00
2023-05-11T00:01:05.961Z,14.00
2023-05-11T00:02:03.387Z,14.00
2023-05-11T00:03:06.706Z,14.00
2023-05-11T00:04:06.244Z,14.00
2023-05-11T00:05:03.859Z,14.00
2023-05-11T00:06:03.470Z,14.00
2023-05-11T00:07:06.586Z,13.90
2023-05-11T00:08:04.063Z,13.90
2023-05-11T00:09:08.664Z,14.00
2023-05-11T00:10:06.977Z,14.00
2023-05-11T00:12:04.043Z,14.00
2023-05-11T00:13:03.736Z,14.00
2023-05-11T00:14:05.952Z,14.00
2023-05-11T00:15:03.363Z,13.90
2023-05-11T00:16:03.918Z,14.00
2023-05-11T00:17:06.173Z,14.00
2023-05-11T00:18:08.740Z,14.00
2023-05-11T00:19:05.804Z,13.90
2023-05-11T00:20:05.852Z,13.90
2023-05-11T00:21:05.813Z,13.90
2023-05-11T00:22:13.358Z,13.90
2023-05-11T00:23:06.308Z,13.90
2023-05-11T00:24:03.687Z,13.90
2023-05-11T00:25:10.878Z,13.90
2023-05-11T00:26:03.338Z,13.90
2023-05-11T00:27:06.416Z,13.90
2023-05-11T00:28:03.917Z,13.90
2023-05-11T00:29:06.053Z,13.90
2023-05-11T00:30:06.087Z,13.90
2023-05-11T00:31:11.203Z,13.90
2023-05-11T00:32:06.378Z,13.90
2023-05-11T00:33:03.896Z,13.90
2023-05-11T00:36:03.748Z,13.90
2023-05-11T00:37:03.393Z,13.90
2023-05-11T00:38:04.012Z,13.90
2023-05-11T00:39:03.622Z,13.90
2023-05-11T00:40:05.724Z,13.90
2023-05-11T00:41:08.278Z,13.90
2023-05-11T00:42:03.766Z,13.90
2023-05-11T00:43:05.847Z,13.90
2023-05-11T00:44:03.344Z,13.90
2023-05-11T00:45:03.953Z,13.90
2023-05-11T00:46:03.510Z,13.90
2023-05-11T00:47:06.729Z,13.90
2023-05-11T00:49:04.031Z,13.80
2023-05-11T00:50:03.820Z,13.80
2023-05-11T00:51:03.481Z,13.80
2023-05-11T00:52:06.525Z,13.80
2023-05-11T00:53:04.015Z,13.80
2023-05-11T00:54:06.060Z,13.80
2023-05-11T00:55:06.065Z,13.80
2023-05-11T00:56:03.553Z,13.80
2023-05-11T00:57:06.722Z,13.80
2023-05-11T00:58:05.759Z,13.80
2023-05-11T00:59:03.366Z,13.80
2023-05-11T01:00:03.899Z,13.80
2023-05-11T01:01:03.549Z,13.80
2023-05-11T01:02:03.512Z,13.80
2023-05-11T01:04:03.880Z,13.80
2023-05-11T01:05:03.426Z,13.80
2023-05-11T01:06:04.005Z,13.80
2023-05-11T01:07:06.193Z,13.80
2023-05-11T01:08:03.669Z,13.80
2023-05-11T01:09:03.223Z,13.80
2023-05-11T01:10:03.892Z,13.80
2023-05-11T01:11:03.659Z,13.80
2023-05-11T01:12:03.220Z,13.80
2023-05-11T01:13:03.779Z,13.80
2023-05-11T01:14:05.892Z,13.80
2023-05-11T01:15:03.378Z,13.80
2023-05-11T01:16:03.947Z,13.80
2023-05-11T01:17:03.750Z,13.80
2023-05-11T01:18:03.559Z,13.80
2023-05-11T01:19:03.249Z,13.70
2023-05-11T01:20:04.114Z,13.70
2023-05-11T01:22:05.946Z,13.70
2023-05-11T01:23:05.914Z,13.70
2023-05-11T01:25:03.821Z,13.70
2023-05-11T01:26:05.898Z,13.70
2023-05-11T01:27:03.351Z,13.70
2023-05-11T01:28:03.933Z,13.70
2023-05-11T01:29:13.686Z,13.70
2023-05-11T01:30:04.140Z,13.70
2023-05-11T01:31:03.653Z,13.70
2023-05-11T01:32:04.166Z,13.70
2023-05-11T01:34:03.853Z,13.70
2023-05-11T01:35:03.410Z,13.70
2023-05-11T01:36:04.006Z,13.70
2023-05-11T01:37:03.596Z,13.70
2023-05-11T01:38:04.191Z,13.70
2023-05-11T01:39:04.180Z,13.70
2023-05-11T01:40:03.637Z,13.60
2023-05-11T01:41:03.487Z,13.70
2023-05-11T01:42:04.056Z,13.70
2023-05-11T01:43:08.776Z,13.70
2023-05-11T01:44:03.181Z,13.70
2023-05-11T01:45:03.692Z,13.70
2023-05-11T01:46:03.291Z,13.70
2023-05-11T01:47:08.948Z,13.60
2023-05-11T01:48:05.956Z,13.60
2023-05-11T01:49:05.961Z,13.60
2023-05-11T01:50:05.986Z,13.60
2023-05-11T01:51:03.418Z,13.60
2023-05-11T01:52:06.554Z,13.60
2023-05-11T01:53:03.979Z,13.60
2023-05-11T01:54:03.523Z,13.60
2023-05-11T01:55:04.053Z,13.60
2023-05-11T01:56:03.609Z,13.60
2023-05-11T01:57:03.146Z,13.60
2023-05-11T01:58:03.741Z,13.60
2023-05-11T01:59:03.338Z,13.60
2023-05-11T02:00:06.519Z,13.70
2023-05-11T02:01:06.597Z,13.60
2023-05-11T02:02:05.659Z,13.70
2023-05-11T02:03:05.806Z,13.70
2023-05-11T02:04:03.554Z,13.70
2023-05-11T02:05:04.078Z,13.60
2023-05-11T02:06:06.214Z,13.60
2023-05-11T02:07:03.792Z,13.60
2023-05-11T02:08:03.311Z,13.60
2023-05-11T02:09:03.890Z,13.60
2023-05-11T02:10:11.144Z,13.60
2023-05-11T02:11:03.660Z,13.60
2023-05-11T02:12:05.806Z,13.60
2023-05-11T02:13:03.231Z,13.60
2023-05-11T02:14:06.402Z,13.60
2023-05-11T02:15:08.879Z,13.60
2023-05-11T02:16:05.938Z,13.60
2023-05-11T02:17:03.561Z,13.60
2023-05-11T02:18:03.200Z,13.60
2023-05-11T02:19:03.893Z,13.60
2023-05-11T02:20:06.173Z,13.60
2023-05-11T02:21:03.570Z,13.60
2023-05-11T02:22:03.210Z,13.60
2023-05-11T02:23:06.338Z,13.60
2023-05-11T02:24:03.822Z,13.60
2023-05-11T02:25:03.413Z,13.60
2023-05-11T02:26:04.043Z,13.60
2023-05-11T02:27:06.190Z,13.60
2023-05-11T02:28:06.157Z,13.60
2023-05-11T02:29:03.633Z,13.60
2023-05-11T02:30:03.278Z,13.60
2023-05-11T02:31:06.459Z,13.60
2023-05-11T02:32:09.084Z,13.60
2023-05-11T02:33:03.627Z,13.60
2023-05-11T02:34:03.323Z,13.60
2023-05-11T02:35:04.037Z,13.60
2023-05-11T02:36:03.615Z,13.60
2023-05-11T02:37:05.735Z,13.60
2023-05-11T02:38:05.773Z,13.50
2023-05-11T02:39:03.344Z,13.60
2023-05-11T02:40:04.045Z,13.60
2023-05-11T02:41:08.773Z,13.60
2023-05-11T02:42:03.248Z,13.60
2023-05-11T02:43:06.381Z,13.50
2023-05-11T02:44:03.862Z,13.60
2023-05-11T02:45:06.075Z,13.50
2023-05-11T02:46:03.592Z,13.50
2023-05-11T02:47:05.779Z,13.50
2023-05-11T02:48:03.356Z,13.50
2023-05-11T02:49:04.079Z,13.50
2023-05-11T02:50:03.790Z,13.50
2023-05-11T02:51:03.471Z,13.50
2023-05-11T02:52:04.073Z,13.50
2023-05-11T02:54:03.198Z,13.50
2023-05-11T02:55:03.904Z,0.20
2023-05-11T02:56:06.006Z,13.50
2023-05-11T02:57:03.549Z,13.50
2023-05-11T02:58:05.719Z,13.50
2023-05-11T02:59:03.357Z,13.50
2023-05-11T03:00:04.051Z,13.50
2023-05-11T03:02:08.567Z,13.50
2023-05-11T03:03:03.314Z,13.50
2023-05-11T03:04:03.905Z,13.50
2023-05-11T03:05:06.132Z,13.50
2023-05-11T03:06:03.683Z,13.50
2023-05-11T03:07:03.219Z,13.50
2023-05-11T03:08:03.762Z,13.50
2023-05-11T03:09:06.842Z,13.50
2023-05-11T03:10:08.792Z,13.50
2023-05-11T03:11:03.258Z,13.50
2023-05-11T03:12:03.834Z,13.50
2023-05-11T03:13:05.919Z,13.50
2023-05-11T03:14:05.929Z,13.50
2023-05-11T03:15:03.377Z,13.50
2023-05-11T03:16:04.037Z,13.50
2023-05-11T03:18:03.253Z,13.50
2023-05-11T03:19:03.900Z,13.50
2023-05-11T03:20:03.707Z,13.50
2023-05-11T03:21:03.428Z,13.50
2023-05-11T03:22:03.889Z,13.50
2023-05-11T03:24:06.600Z,13.50
2023-05-11T03:25:09.249Z,13.50
2023-05-11T03:26:06.348Z,13.50
2023-05-11T03:27:03.807Z,13.50
2023-05-11T03:28:03.374Z,13.50
2023-05-11T03:29:03.882Z,13.50
2023-05-11T03:30:03.455Z,13.50
2023-05-11T03:31:03.981Z,13.50
2023-05-11T03:32:03.619Z,13.50
2023-05-11T03:33:05.825Z,13.50
2023-05-11T03:34:03.395Z,13.50
2023-05-11T03:35:03.917Z,13.50
2023-05-11T03:36:08.566Z,13.50
2023-05-11T03:37:04.015Z,13.50
2023-05-11T03:38:06.181Z,13.50
2023-05-11T03:39:03.766Z,13.40
2023-05-11T03:40:03.341Z,13.40
2023-05-11T03:41:03.951Z,13.50
2023-05-11T03:42:03.512Z,13.50
2023-05-11T03:43:03.143Z,13.50
2023-05-11T03:44:03.820Z,13.50
2023-05-11T03:45:06.048Z,13.50
2023-05-11T03:46:03.550Z,13.50
2023-05-11T03:47:03.635Z,13.40
2023-05-11T03:48:06.602Z,13.50
2023-05-11T03:49:04.068Z,13.40
2023-05-11T03:50:05.722Z,13.50
2023-05-11T03:51:03.171Z,13.50
2023-05-11T03:52:03.795Z,13.50
2023-05-11T03:53:03.496Z,13.50
2023-05-11T03:54:04.174Z,13.50
2023-05-11T03:55:03.729Z,13.50
2023-05-11T03:56:08.381Z,13.40
2023-05-11T03:57:06.749Z,13.40
2023-05-11T03:58:04.404Z,13.50
2023-05-11T03:59:06.640Z,13.50
2023-05-11T04:00:09.190Z,13.40
2023-05-11T04:02:03.310Z,13.50
2023-05-11T04:03:03.993Z,13.50
2023-05-11T04:04:06.402Z,13.50
2023-05-11T04:06:06.605Z,13.50
2023-05-11T04:07:04.155Z,13.50
2023-05-11T04:08:06.277Z,13.50
2023-05-11T04:09:03.750Z,13.40
2023-05-11T04:10:03.371Z,13.50
2023-05-11T04:11:04.019Z,13.50
2023-05-11T04:12:03.551Z,13.50
2023-05-11T04:13:03.162Z,13.50
2023-05-11T04:14:06.395Z,13.50
2023-05-11T04:15:03.868Z,13.50
2023-05-11T04:16:03.492Z,13.40
2023-05-11T04:17:03.593Z,13.50
2023-05-11T04:18:03.490Z,13.50
2023-05-11T04:19:05.740Z,13.50
2023-05-11T04:20:03.381Z,13.50
2023-05-11T04:21:04.029Z,13.40
2023-05-11T04:22:06.125Z,13.50
2023-05-11T04:24:06.485Z,13.40
2023-05-11T04:25:06.877Z,13.40
2023-05-11T04:29:06.630Z,13.50
2023-05-11T04:31:11.139Z,13.50
2023-05-11T04:32:03.981Z,13.50
2023-05-11T04:34:11.180Z,13.50
2023-05-11T04:38:09.293Z,13.50
2023-05-11T04:43:11.667Z,13.50
2023-05-11T04:45:08.949Z,13.40
2023-05-11T04:47:11.835Z,13.50
2023-05-11T04:49:03.802Z,13.50
2023-05-11T04:50:03.534Z,13.50
2023-05-11T04:51:03.140Z,13.50
2023-05-11T04:53:11.376Z,13.50
2023-05-11T04:55:08.394Z,13.40
2023-05-11T04:59:04.757Z,13.40
2023-05-11T05:02:03.900Z,13.50
2023-05-11T05:03:06.157Z,13.50
2023-05-11T05:04:06.348Z,13.50
2023-05-11T05:05:04.007Z,13.50
2023-05-11T05:06:03.507Z,13.50
2023-05-11T05:07:04.282Z,13.50
2023-05-11T05:08:03.892Z,13.50
2023-05-11T05:13:03.552Z,13.50
2023-05-11T05:15:03.601Z,13.50
2023-05-11T05:17:03.719Z,13.50
2023-05-11T05:18:03.614Z,13.50
2023-05-11T05:28:09.114Z,13.50
2023-05-11T05:29:08.650Z,13.50
2023-05-11T05:31:04.153Z,13.50
2023-05-11T05:33:03.415Z,13.50
2023-05-11T05:34:05.851Z,13.50
2023-05-11T05:35:03.317Z,13.40
2023-05-11T05:36:03.287Z,13.50
2023-05-11T05:37:04.018Z,13.50
2023-05-11T05:38:06.304Z,13.50
2023-05-11T05:39:06.374Z,13.50
2023-05-11T05:40:03.824Z,13.50
2023-05-11T05:41:04.075Z,13.50
2023-05-11T05:42:03.836Z,13.50
2023-05-11T05:43:03.500Z,13.50
2023-05-11T05:44:04.154Z,13.50
2023-05-11T05:45:03.694Z,13.50
2023-05-11T05:46:03.393Z,13.50
2023-05-11T05:47:06.579Z,13.60
2023-05-11T05:49:08.444Z,13.50
2023-05-11T05:50:06.665Z,13.60
2023-05-11T05:51:06.848Z,13.60
2023-05-11T05:52:05.877Z,13.60
2023-05-11T05:56:06.452Z,13.60
2023-05-11T05:58:03.677Z,13.60
2023-05-11T06:01:03.338Z,13.70
2023-05-11T06:02:03.927Z,13.70
2023-05-11T06:05:08.951Z,13.70
2023-05-11T06:06:03.458Z,13.60
2023-05-11T06:07:04.089Z,13.70
2023-05-11T06:08:10.848Z,13.70
2023-05-11T06:09:06.533Z,13.70
2023-05-11T06:10:06.588Z,13.70
2023-05-11T06:11:04.136Z,13.70
2023-05-11T06:12:06.246Z,13.70
2023-05-11T06:13:03.768Z,13.70
2023-05-11T06:14:03.488Z,13.80
2023-05-11T06:15:04.151Z,13.80
2023-05-11T06:17:04.172Z,13.80
2023-05-11T06:19:06.167Z,13.80
2023-05-11T06:20:06.457Z,13.80
2023-05-11T06:21:04.017Z,13.80
2023-05-11T06:22:05.833Z,13.80
2023-05-11T06:23:08.494Z,13.80
2023-05-11T06:24:06.546Z,13.80
2023-05-11T06:25:06.522Z,13.80
2023-05-11T06:26:03.976Z,13.80
2023-05-11T06:27:03.590Z,13.80
2023-05-11T06:28:05.791Z,13.90
2023-05-11T06:29:03.450Z,13.90
2023-05-11T06:30:06.651Z,13.90
2023-05-11T06:31:04.097Z,13.80
2023-05-11T06:32:06.214Z,13.90
2023-05-11T06:35:04.039Z,13.90
2023-05-11T06:36:08.737Z,13.90
2023-05-11T06:37:03.314Z,13.90
2023-05-11T06:38:04.074Z,13.80
2023-05-11T06:41:06.353Z,14.00
2023-05-11T06:42:05.858Z,14.00
2023-05-11T06:44:03.132Z,14.00
2023-05-11T06:45:06.298Z,14.10
2023-05-11T06:46:09.062Z,14.10
2023-05-11T06:48:04.114Z,14.10
2023-05-11T06:49:03.782Z,14.20
2023-05-11T06:50:03.389Z,14.20
2023-05-11T06:51:03.884Z,14.20
2023-05-11T06:53:06.393Z,14.30
2023-05-11T06:54:06.400Z,14.30
2023-05-11T06:55:09.127Z,14.30
2023-05-11T06:57:09.202Z,14.30
2023-05-11T07:01:06.932Z,14.30
2023-05-11T07:03:04.412Z,14.30
2023-05-11T07:04:05.893Z,14.40
2023-05-11T07:05:06.062Z,14.40
2023-05-11T07:06:03.771Z,14.30
2023-05-11T07:07:03.425Z,14.30
2023-05-11T07:08:04.140Z,14.30
2023-05-11T07:09:03.944Z,14.30
2023-05-11T07:10:03.565Z,14.30
2023-05-11T07:11:03.606Z,14.30
2023-05-11T07:12:04.002Z,14.30
2023-05-11T07:13:06.233Z,14.40
2023-05-11T07:14:03.845Z,14.30
2023-05-11T07:17:08.328Z,14.30
2023-05-11T07:18:04.039Z,14.20
2023-05-11T07:19:03.822Z,14.30
2023-05-11T07:22:03.912Z,14.30
2023-05-11T07:23:04.106Z,14.40
2023-05-11T07:24:03.674Z,14.30
2023-05-11T07:26:03.328Z,14.40
2023-05-11T07:28:04.202Z,14.30
2023-05-11T07:29:04.163Z,14.30
2023-05-11T07:30:11.357Z,14.30
2023-05-11T07:31:03.887Z,14.40
2023-05-11T07:32:06.142Z,14.40
2023-05-11T07:33:06.193Z,14.40
2023-05-11T07:34:06.390Z,14.40
2023-05-11T07:35:03.899Z,14.40
2023-05-11T07:36:03.623Z,14.40
2023-05-11T07:37:05.915Z,14.40
2023-05-11T07:38:03.529Z,14.40
2023-05-11T07:39:06.648Z,14.40
2023-05-11T07:41:05.985Z,14.50
2023-05-11T07:43:06.642Z,14.50
2023-05-11T07:44:06.632Z,14.50
2023-05-11T07:45:04.042Z,14.50
2023-05-11T07:46:03.623Z,14.50
2023-05-11T07:47:05.881Z,14.60
2023-05-11T07:48:05.924Z,14.50
2023-05-11T07:49:14.277Z,14.50
2023-05-11T07:50:05.913Z,14.60
2023-05-11T07:51:05.882Z,14.60
2023-05-11T07:52:05.889Z,14.60
2023-05-11T07:53:05.918Z,14.60
2023-05-11T07:54:05.907Z,14.60
2023-05-11T07:55:03.344Z,14.60
2023-05-11T07:56:09.044Z,14.60
2023-05-11T07:57:03.548Z,14.60
2023-05-11T07:58:03.265Z,14.60
2023-05-11T07:59:08.914Z,14.60
2023-05-11T08:00:06.232Z,14.60
2023-05-11T08:01:03.828Z,14.60
2023-05-11T08:04:03.380Z,14.70
2023-05-11T08:06:03.804Z,14.60
2023-05-11T08:07:03.537Z,14.70
2023-05-11T08:11:05.810Z,14.70
2023-05-11T08:13:04.009Z,14.80
2023-05-11T08:14:06.121Z,14.80
2023-05-11T08:15:03.572Z,14.80
2023-05-11T08:16:05.727Z,14.80
2023-05-11T08:17:08.368Z,14.80
2023-05-11T08:19:03.330Z,14.90
2023-05-11T08:22:04.304Z,14.90
2023-05-11T08:23:06.486Z,14.90
2023-05-11T08:24:03.888Z,14.90
2023-05-11T08:25:03.523Z,14.90
2023-05-11T08:28:08.417Z,15.00
2023-05-11T08:30:03.321Z,15.10
2023-05-11T08:31:03.974Z,15.10
2023-05-11T08:33:23.102Z,15.10
2023-05-11T08:35:03.688Z,15.20
2023-05-11T08:37:06.417Z,15.20
2023-05-11T08:43:10.999Z,15.30
2023-05-11T08:48:14.467Z,15.50
2023-05-11T09:07:17.297Z,15.80
2023-05-11T09:16:19.756Z,16.10
2023-05-11T09:18:06.597Z,16.10
2023-05-11T09:22:06.472Z,16.30
2023-05-11T09:25:03.342Z,16.30
2023-05-11T09:27:08.638Z,16.20
2023-05-11T09:28:04.113Z,16.20
2023-05-11T09:29:04.086Z,16.30
2023-05-11T09:30:06.438Z,16.30
2023-05-11T09:31:04.078Z,16.30
2023-05-11T09:33:03.452Z,16.30
2023-05-11T09:35:06.429Z,16.40
2023-05-11T09:36:06.365Z,16.40
2023-05-11T09:37:03.859Z,16.40
2023-05-11T09:38:03.400Z,16.40
2023-05-11T09:39:08.460Z,16.40
2023-05-11T09:41:06.527Z,16.50
2023-05-11T09:42:06.656Z,16.50
2023-05-11T09:43:04.186Z,16.50
2023-05-11T09:44:03.843Z,16.50
2023-05-11T09:45:06.008Z,16.60
2023-05-11T09:46:06.061Z,16.60
2023-05-11T09:47:08.825Z,16.70
2023-05-11T09:48:03.388Z,16.70
2023-05-11T09:49:04.063Z,16.70
2023-05-11T09:50:06.176Z,16.80
2023-05-11T09:51:03.698Z,16.80
2023-05-11T09:52:03.413Z,16.90
2023-05-11T09:53:06.535Z,17.00
2023-05-11T09:54:06.530Z,17.00
2023-05-11T09:55:04.045Z,17.10
2023-05-11T09:56:03.626Z,17.10
2023-05-11T09:57:03.195Z,17.10
2023-05-11T09:58:03.909Z,17.20
2023-05-11T09:59:08.653Z,17.30
2023-05-11T10:00:04.080Z,17.30
2023-05-11T10:01:03.862Z,17.40
2023-05-11T10:02:04.136Z,17.50
2023-05-11T10:03:04.030Z,17.50
2023-05-11T10:07:03.900Z,17.70
2023-05-11T10:10:03.959Z,17.80
2023-05-11T10:12:14.263Z,17.90
2023-05-11T10:13:03.679Z,17.90
2023-05-11T10:14:03.378Z,18.00
2023-05-11T10:15:03.997Z,18.00
2023-05-11T10:16:06.208Z,18.10
2023-05-11T10:17:06.501Z,18.10
2023-05-11T10:19:11.402Z,18.20
2023-05-11T10:20:06.537Z,18.20
2023-05-11T10:21:06.520Z,18.20
2023-05-11T10:22:09.056Z,18.20
2023-05-11T10:23:03.521Z,18.30
2023-05-11T10:24:04.082Z,18.10
2023-05-11T10:25:06.259Z,18.20
2023-05-11T10:26:08.841Z,18.10
2023-05-11T10:28:06.209Z,18.10
2023-05-11T10:29:06.238Z,18.10
2023-05-11T10:30:03.746Z,18.00
2023-05-11T10:31:03.297Z,18.00
2023-05-11T10:34:06.625Z,17.90
2023-05-11T10:35:06.728Z,17.90
2023-05-11T10:36:05.706Z,17.90
2023-05-11T10:37:03.201Z,17.90
2023-05-11T10:38:03.781Z,17.90
2023-05-11T10:39:08.538Z,17.90
2023-05-11T10:40:03.416Z,17.90
2023-05-11T10:41:04.004Z,17.90
2023-05-11T10:42:06.298Z,17.80
2023-05-11T10:43:03.777Z,17.80
2023-05-11T10:44:03.350Z,17.80
2023-05-11T10:45:06.489Z,17.80
2023-05-11T10:46:06.557Z,17.80
2023-05-11T10:47:08.391Z,17.80
2023-05-11T10:51:04.105Z,17.90
2023-05-11T10:53:03.231Z,17.80
2023-05-11T10:57:06.602Z,17.80
2023-05-11T10:58:04.168Z,17.80
2023-05-11T10:59:03.809Z,17.80
2023-05-11T11:00:03.395Z,17.70
2023-05-11T11:01:06.734Z,17.60
2023-05-11T11:03:04.117Z,17.60
2023-05-11T11:05:03.416Z,17.60
2023-05-11T11:06:04.210Z,17.60
2023-05-11T11:07:06.785Z,17.50
2023-05-11T11:08:05.886Z,17.50
2023-05-11T11:09:03.346Z,17.50
2023-05-11T11:11:05.000Z,17.50
2023-05-11T11:12:04.012Z,17.50
2023-05-11T11:13:06.081Z,17.50
2023-05-11T11:14:06.178Z,17.50
2023-05-11T11:15:06.445Z,17.60
2023-05-11T11:16:04.039Z,17.60
2023-05-11T11:17:03.687Z,17.60
2023-05-11T11:19:04.288Z,17.60
2023-05-11T11:22:04.340Z,17.60
2023-05-11T11:24:06.630Z,17.60
2023-05-11T11:25:03.221Z,17.70
2023-05-11T11:26:03.816Z,17.70
2023-05-11T11:27:03.511Z,17.70
2023-05-11T11:28:06.593Z,17.80
2023-05-11T11:29:09.288Z,17.80
2023-05-11T11:31:05.889Z,17.90
2023-05-11T11:34:03.284Z,18.00
2023-05-11T11:35:03.905Z,18.20
2023-05-11T11:36:06.179Z,18.20
2023-05-11T11:37:03.638Z,18.20
2023-05-11T11:38:05.861Z,18.30
2023-05-11T11:39:03.429Z,18.30
2023-05-11T11:40:13.619Z,18.30
2023-05-11T11:42:03.896Z,18.40
2023-05-11T11:43:03.613Z,18.40
2023-05-11T11:44:03.148Z,18.40
2023-05-11T11:45:11.352Z,18.50
2023-05-11T11:46:06.470Z,18.40
2023-05-11T11:47:06.670Z,18.40
2023-05-11T11:49:03.742Z,18.40
2023-05-11T11:50:05.905Z,18.30
2023-05-11T11:51:10.985Z,18.30
2023-05-11T11:52:03.554Z,18.30
2023-05-11T11:53:05.762Z,18.30
2023-05-11T11:55:04.080Z,18.20
2023-05-11T11:56:08.790Z,18.10
2023-05-11T11:59:06.464Z,18.10
2023-05-11T12:01:08.670Z,18.20
2023-05-11T12:02:06.879Z,18.20
2023-05-11T12:03:03.423Z,18.20
2023-05-11T12:05:08.441Z,18.20
2023-05-11T12:07:06.631Z,18.30
2023-05-11T12:08:04.109Z,18.30
2023-05-11T12:09:03.749Z,18.30
2023-05-11T12:10:03.243Z,18.40
2023-05-11T12:12:03.409Z,18.50
2023-05-11T12:13:03.910Z,18.50
2023-05-11T12:15:09.061Z,18.60
2023-05-11T12:16:03.765Z,18.60
2023-05-11T12:17:03.863Z,18.60
2023-05-11T12:19:06.742Z,18.60
2023-05-11T12:21:03.908Z,18.60
2023-05-11T12:22:06.087Z,18.70
2023-05-11T12:24:06.666Z,18.70
2023-05-11T12:26:03.542Z,18.60
2023-05-11T12:28:09.091Z,18.60
2023-05-11T12:30:05.808Z,18.60
2023-05-11T12:31:03.334Z,18.60
2023-05-11T12:32:06.583Z,18.60
2023-05-11T12:36:06.227Z,18.50
2023-05-11T12:38:04.227Z,18.50
2023-05-11T12:40:05.753Z,18.50
2023-05-11T12:41:08.382Z,18.50
2023-05-11T12:42:03.517Z,18.50
2023-05-11T12:43:06.658Z,18.50
2023-05-11T12:45:06.052Z,18.50
2023-05-11T12:48:03.759Z,18.40
2023-05-11T12:49:06.025Z,18.30
2023-05-11T12:50:06.124Z,18.30
2023-05-11T12:52:04.009Z,18.30
2023-05-11T12:53:06.158Z,18.30
2023-05-11T12:55:03.233Z,18.30
2023-05-11T12:57:08.384Z,18.20
2023-05-11T12:58:11.670Z,18.20
2023-05-11T13:01:03.612Z,18.20
2023-05-11T13:02:03.222Z,18.30
2023-05-11T13:04:03.590Z,18.40
2023-05-11T13:05:05.987Z,18.50
2023-05-11T13:08:08.335Z,18.70
2023-05-11T13:10:03.629Z,18.80
2023-05-11T13:12:08.697Z,18.90
2023-05-11T13:15:08.316Z,18.90
2023-05-11T13:16:06.332Z,18.90
2023-05-11T13:17:06.482Z,18.90
2023-05-11T13:20:03.954Z,18.80
2023-05-11T13:21:06.220Z,18.70
2023-05-11T13:22:03.704Z,18.70
2023-05-11T13:23:03.396Z,18.70
2023-05-11T13:24:04.203Z,18.70
2023-05-11T13:25:03.894Z,18.60
2023-05-11T13:27:06.476Z,18.40
2023-05-11T13:30:08.378Z,18.30
2023-05-11T13:31:06.569Z,18.30
2023-05-11T13:32:04.154Z,18.20
2023-05-11T13:33:06.386Z,18.20
2023-05-11T13:34:06.559Z,18.20
2023-05-11T13:35:04.030Z,18.10
2023-05-11T13:37:03.301Z,18.10
2023-05-11T13:38:03.855Z,18.00
2023-05-11T13:39:06.018Z,18.00
2023-05-11T13:40:03.560Z,18.00
2023-05-11T13:41:05.743Z,17.90
2023-05-11T13:42:03.190Z,17.90
2023-05-11T13:43:03.719Z,17.90
2023-05-11T13:44:03.405Z,17.90
2023-05-11T13:45:11.568Z,17.80
2023-05-11T13:49:03.754Z,17.70
2023-05-11T13:50:13.592Z,17.70
2023-05-11T13:51:06.692Z,17.80
2023-05-11T13:52:06.658Z,17.80
2023-05-11T13:53:06.632Z,17.80
2023-05-11T13:54:06.601Z,17.80
2023-05-11T13:55:05.818Z,17.80
2023-05-11T13:56:03.308Z,17.80
2023-05-11T13:57:03.958Z,17.80
2023-05-11T13:59:08.988Z,17.80
2023-05-11T14:00:06.007Z,17.80
2023-05-11T14:01:08.192Z,17.80
2023-05-11T14:03:03.783Z,17.80
2023-05-11T14:04:06.162Z,17.80
2023-05-11T14:05:06.516Z,17.80
2023-05-11T14:06:06.570Z,17.80
2023-05-11T14:07:06.597Z,17.80
2023-05-11T14:08:04.106Z,17.80
2023-05-11T14:09:03.706Z,17.80
2023-05-11T14:11:08.739Z,17.80
2023-05-11T14:12:03.224Z,17.80
2023-05-11T14:13:03.788Z,17.70
2023-05-11T14:14:03.399Z,17.70
2023-05-11T14:15:03.962Z,17.70
2023-05-11T14:16:06.113Z,17.70
2023-05-11T14:17:03.677Z,17.80
2023-05-11T14:18:03.367Z,17.70
2023-05-11T14:19:05.909Z,17.80
2023-05-11T14:20:03.638Z,17.80
2023-05-11T14:21:08.378Z,17.80
2023-05-11T14:22:06.359Z,17.70
2023-05-11T14:23:03.790Z,17.70
2023-05-11T14:24:11.835Z,17.70
2023-05-11T14:25:05.949Z,17.60
2023-05-11T14:26:05.993Z,17.60
2023-05-11T14:27:03.419Z,17.60
2023-05-11T14:28:03.946Z,17.60
2023-05-11T14:30:06.411Z,17.60
2023-05-11T14:31:06.458Z,17.60
2023-05-11T14:32:04.046Z,17.50
2023-05-11T14:33:03.738Z,17.50
2023-05-11T14:34:06.016Z,17.40
2023-05-11T14:36:04.215Z,17.30
2023-05-11T14:37:06.371Z,17.30
2023-05-11T14:38:03.762Z,17.30
2023-05-11T14:39:10.988Z,17.30
2023-05-11T14:40:03.614Z,17.30
2023-05-11T14:41:05.808Z,17.50
2023-05-11T14:42:06.899Z,17.30
2023-05-11T14:44:06.564Z,17.20
2023-05-11T14:46:11.203Z,17.20
2023-05-11T14:47:03.933Z,17.20
2023-05-11T14:48:03.511Z,17.20
2023-05-11T14:50:06.461Z,17.10
2023-05-11T14:51:08.995Z,16.90
2023-05-11T14:52:03.443Z,17.20
2023-05-11T14:53:06.584Z,17.20
2023-05-11T14:54:06.531Z,17.10
2023-05-11T14:56:05.928Z,17.10
2023-05-11T14:57:05.885Z,17.10
2023-05-11T14:58:03.342Z,17.10
2023-05-11T14:59:06.455Z,17.20
2023-05-11T15:00:06.417Z,17.10
2023-05-11T15:01:11.591Z,17.20
2023-05-11T15:03:03.543Z,17.10
2023-05-11T15:04:03.479Z,17.00
2023-05-11T15:05:05.787Z,17.00
2023-05-11T15:06:03.222Z,17.00
2023-05-11T15:07:03.899Z,17.00
2023-05-11T15:08:03.474Z,16.90
2023-05-11T15:09:06.561Z,16.90
2023-05-11T15:10:09.080Z,17.00
2023-05-11T15:11:03.758Z,16.90
2023-05-11T15:13:04.149Z,16.90
2023-05-11T15:14:06.320Z,16.90
2023-05-11T15:15:03.756Z,16.90
2023-05-11T15:16:03.402Z,16.80
2023-05-11T15:17:04.116Z,16.90
2023-05-11T15:19:03.272Z,16.90
2023-05-11T15:20:06.566Z,16.80
2023-05-11T15:21:06.590Z,16.80
2023-05-11T15:22:04.054Z,16.70
2023-05-11T15:23:03.602Z,16.80
2023-05-11T15:24:06.492Z,16.80
2023-05-11T15:25:03.974Z,16.90
2023-05-11T15:26:03.677Z,16.80
2023-05-11T15:27:05.960Z,16.80
2023-05-11T15:28:03.489Z,16.80
2023-05-11T15:29:04.076Z,16.70
2023-05-11T15:30:06.182Z,16.70
2023-05-11T15:31:11.364Z,16.70
2023-05-11T15:32:06.625Z,16.70
2023-05-11T15:33:05.839Z,16.60
2023-05-11T15:34:03.551Z,16.60
2023-05-11T15:35:05.735Z,16.60
2023-05-11T15:36:03.226Z,16.60
2023-05-11T15:37:03.879Z,16.60
2023-05-11T15:38:06.235Z,16.50
2023-05-11T15:39:04.017Z,16.50
2023-05-11T15:40:03.669Z,16.50
2023-05-11T15:41:05.759Z,16.50
2023-05-11T15:42:03.250Z,16.50
2023-05-11T15:43:06.423Z,16.50
2023-05-11T15:44:03.944Z,16.50
2023-05-11T15:45:03.492Z,16.40
2023-05-11T15:46:04.159Z,16.40
2023-05-11T15:48:03.527Z,16.40
2023-05-11T15:49:04.182Z,16.40
2023-05-11T15:51:08.599Z,16.40
2023-05-11T15:52:04.088Z,16.40
2023-05-11T15:53:03.686Z,16.40
2023-05-11T15:54:05.910Z,16.40
2023-05-11T15:55:05.959Z,16.40
2023-05-11T15:56:03.409Z,16.40
2023-05-11T15:57:09.012Z,16.40
2023-05-11T15:58:03.561Z,16.40
2023-05-11T15:59:09.194Z,16.40
2023-05-11T16:00:03.717Z,16.40
2023-05-11T16:01:03.304Z,16.40
2023-05-11T16:02:03.898Z,16.40
2023-05-11T16:04:03.340Z,16.40
2023-05-11T16:05:03.922Z,16.40
2023-05-11T16:06:08.580Z,16.50
2023-05-11T16:07:04.112Z,16.40
2023-05-11T16:08:03.729Z,16.50
2023-05-11T16:09:08.460Z,16.50
2023-05-11T16:10:03.986Z,16.40
2023-05-11T16:11:06.084Z,16.50
2023-05-11T16:12:06.015Z,16.50
2023-05-11T16:13:03.549Z,16.50
2023-05-11T16:14:03.224Z,16.50
2023-05-11T16:15:03.875Z,16.50
2023-05-11T16:17:04.049Z,16.50
2023-05-11T16:18:05.272Z,16.50
2023-05-11T16:19:04.286Z,16.50
2023-05-11T16:20:03.886Z,16.50
2023-05-11T16:21:03.521Z,16.50
2023-05-11T16:23:06.284Z,16.50
2023-05-11T16:24:03.697Z,16.50
2023-05-11T16:25:03.424Z,16.50
2023-05-11T16:26:04.087Z,16.60
2023-05-11T16:27:03.642Z,16.60
2023-05-11T16:28:03.362Z,16.60
2023-05-11T16:29:03.945Z,16.60
2023-05-11T16:30:11.280Z,16.60
2023-05-11T16:32:03.336Z,16.60
2023-05-11T16:33:04.046Z,16.60
2023-05-11T16:34:03.715Z,16.60
2023-05-11T16:35:03.371Z,16.60
2023-05-11T16:36:06.621Z,16.60
2023-05-11T16:37:06.699Z,16.70
2023-05-11T16:39:03.933Z,16.60
2023-05-11T16:41:03.229Z,16.60
2023-05-11T16:42:06.356Z,16.60
2023-05-11T16:43:03.840Z,16.60
2023-05-11T16:44:03.325Z,16.60
2023-05-11T16:45:04.030Z,16.60
2023-05-11T16:47:08.413Z,16.60
2023-05-11T16:48:03.968Z,16.60
2023-05-11T16:49:03.738Z,16.60
2023-05-11T16:50:05.864Z,16.60
2023-05-11T16:51:08.382Z,16.60